Archival Weather

Heathrow

London, United Kingdom (EGLL)

Report from: Tuesday, September 19, 2023 4:20 PM BST
Current time: Tuesday, July 16, 2024 4:21 PM BST

Current weather – Weather history – Daily summaries
Weather forecast

Temperature19.0°C (66.2°F)
Dew point15.0°C (59.0°F)
Winds 17 kts (8.7 m/s, 19.6 mph) Southwest (220°)
Visibility6.2 mi. (10 km)
Clouds Ceiling: Broken clouds 1,400 ft. (427 m)
Broken clouds 1,500 ft. (457 m)
Overcast 3,700 ft. (1,128 m)
Altimeter29.68 in.Hg (1005 mB)
Relative humidity78 %
Density altitude984 ft. (300 m)
Remarks Fully automated report
Flight conditions Marginal Visual Meteorological Conditions
Raw dataEGLL 191520Z AUTO 22017KT 9999 BKN015 OVC037 19/15 Q1005 TEMPO BKN014
An error has occurred. This application may no longer respond until reloaded. Reload 🗙